Time;durP1;ratioP1;P1;durP2;ratioP2;P2;SDS_P1;SDS_P2;PMS_P1;PMS_P2;Temp;Humidity;BMP_temperature;BMP_pressure;BME280_temperature;BME280_humidity;BME280_pressure;Samples;Min_cycle;Max_cycle;Signal;HPM_P1;HPM_P2
2022/12/17 13:08:16;;;;;;;58.33;29.27;;;-1.30;1.00;;;;;;6236426;28;20234;-51
2022/12/17 13:11:29;;;;;;;57.73;30.97;;;-1.30;1.00;;;;;;6235539;28;20231;-52
2022/12/17 13:14:36;;;;;;;57.33;31.00;;;-1.10;1.00;;;;;;6234418;28;20254;-51
2022/12/17 13:17:41;;;;;;;54.03;30.30;;;-1.20;1.00;;;;;;6235695;28;20243;-50
2022/12/17 13:20:44;;;;;;;56.07;29.70;;;-1.10;1.00;;;;;;6235703;28;20247;-52
2022/12/17 13:23:47;;;;;;;61.57;31.30;;;-0.80;1.00;;;;;;6233536;28;20247;-51
2022/12/17 13:26:52;;;;;;;56.57;30.17;;;-0.90;1.00;;;;;;6237934;28;20718;-53
2022/12/17 13:29:55;;;;;;;55.07;30.87;;;-1.10;1.00;;;;;;6235049;28;20242;-52
2022/12/17 13:33:13;;;;;;;56.33;28.67;;;-0.80;1.00;;;;;;6229642;28;20705;-49
2022/12/17 13:36:23;;;;;;;59.07;28.33;;;-1.00;1.00;;;;;;6234844;28;20452;-52
2022/12/17 13:39:37;;;;;;;55.97;28.77;;;-1.00;1.00;;;;;;6231575;28;20239;-52
2022/12/17 13:42:45;;;;;;;52.43;27.67;;;-1.00;1.00;;;;;;6232078;28;20227;-52
2022/12/17 13:45:51;;;;;;;52.00;26.60;;;-0.80;1.00;;;;;;6235382;28;20342;-51
2022/12/17 13:48:59;;;;;;;49.00;27.13;;;-0.80;1.00;;;;;;6234597;28;20276;-51
2022/12/17 13:52:03;;;;;;;52.30;27.10;;;-1.10;1.00;;;;;;6231397;28;20246;-56
2022/12/17 13:55:19;;;;;;;46.40;26.13;;;-1.20;1.00;;;;;;6259884;28;20230;-52
2022/12/17 13:58:27;;;;;;;54.00;28.17;;;-1.20;1.00;;;;;;6258102;28;20397;-52
2022/12/17 14:01:30;;;;;;;55.30;27.20;;;-1.20;1.00;;;;;;6258175;28;20234;-52
2022/12/17 14:04:34;;;;;;;57.77;27.20;;;-1.50;1.00;;;;;;6259913;28;20262;-51
2022/12/17 14:07:39;;;;;;;53.03;25.90;;;-1.30;1.00;;;;;;6256556;28;20235;-51
2022/12/17 14:10:49;;;;;;;49.90;25.30;;;-1.40;1.00;;;;;;6253398;28;20256;-52
2022/12/17 14:13:53;;;;;;;52.47;27.90;;;-1.40;1.00;;;;;;6259845;28;20238;-51
2022/12/17 14:16:56;;;;;;;49.80;27.83;;;-1.40;1.00;;;;;;6259125;28;20594;-51
2022/12/17 14:20:03;;;;;;;51.13;25.93;;;-1.40;1.00;;;;;;6259102;28;20254;-51
2022/12/17 14:23:14;;;;;;;48.07;25.43;;;-1.40;1.00;;;;;;6259724;28;20306;-50
2022/12/17 14:26:17;;;;;;;54.97;27.13;;;-1.40;1.00;;;;;;6255358;28;20241;-51
2022/12/17 14:29:26;;;;;;;51.10;26.27;;;-1.30;1.00;;;;;;6258956;28;20234;-52
2022/12/17 14:32:34;;;;;;;51.93;25.40;;;-1.50;1.00;;;;;;6258612;28;20634;-51
2022/12/17 14:35:39;;;;;;;49.83;26.10;;;-1.40;1.00;;;;;;6257751;28;20229;-55
2022/12/17 14:38:53;;;;;;;52.40;26.80;;;-1.50;1.00;;;;;;6255705;28;20234;-52
2022/12/17 14:42:25;;;;;;;53.90;27.47;;;-1.60;1.00;;;;;;6243705;28;20651;-51
2022/12/17 14:45:30;;;;;;;52.53;27.13;;;-1.50;1.00;;;;;;6240759;28;20614;-52
2022/12/17 14:51:50;;;;;;;53.93;27.13;;;-1.60;1.00;;;;;;6254813;28;20230;-50
2022/12/17 14:54:53;;;;;;;53.53;27.37;;;-1.60;1.00;;;;;;6252535;28;20452;-52
2022/12/17 14:58:08;;;;;;;55.00;28.20;;;-1.70;1.00;;;;;;6257444;28;20239;-52
2022/12/17 15:01:13;;;;;;;59.10;27.80;;;-1.60;1.00;;;;;;6257577;28;20241;-51
2022/12/17 15:04:17;;;;;;;50.57;26.70;;;-1.60;1.00;;;;;;6258863;28;20592;-52
2022/12/17 15:07:25;;;;;;;54.83;28.10;;;-1.60;1.00;;;;;;6256205;28;20396;-50
2022/12/17 15:10:28;;;;;;;49.37;25.60;;;-1.60;1.00;;;;;;6253257;28;20233;-51
2022/12/17 15:13:31;;;;;;;59.23;27.50;;;-1.60;1.00;;;;;;6255398;28;20238;-51
2022/12/17 15:16:35;;;;;;;56.03;27.43;;;-1.60;1.00;;;;;;6257172;28;20242;-51
2022/12/17 15:19:38;;;;;;;53.93;28.43;;;-1.60;1.00;;;;;;6258438;28;20237;-51
2022/12/17 15:22:41;;;;;;;61.47;30.67;;;-1.60;1.00;;;;;;6254144;28;20244;-52
2022/12/17 15:25:45;;;;;;;55.10;27.47;;;-1.60;1.00;;;;;;6258117;28;20245;-51
2022/12/17 15:28:49;;;;;;;52.43;27.13;;;-1.80;1.00;;;;;;6257820;28;20230;-52
2022/12/17 15:31:53;;;;;;;61.97;27.57;;;-1.60;1.00;;;;;;6251807;28;20319;-51
2022/12/17 15:34:56;;;;;;;60.57;28.63;;;-1.60;1.00;;;;;;6256244;28;20246;-52
2022/12/17 15:37:59;;;;;;;59.00;27.80;;;-1.90;1.00;;;;;;6236229;28;20245;-51
2022/12/17 15:43:09;;;;;;;55.37;27.80;;;-1.70;1.00;;;;;;6223342;28;20235;-51
2022/12/17 15:44:26;;;;;;;60.30;28.90;;;-1.60;1.00;;;;;;6232661;28;20235;-52
2022/12/17 15:47:30;;;;;;;50.47;27.03;;;-1.80;1.00;;;;;;6246722;28;20245;-51
2022/12/17 15:50:33;;;;;;;54.53;26.63;;;-2.00;1.00;;;;;;6235254;28;20270;-51
2022/12/17 15:53:36;;;;;;;58.53;28.27;;;-1.90;1.00;;;;;;6250457;28;20234;-51
2022/12/17 15:56:40;;;;;;;63.63;29.73;;;-2.00;1.00;;;;;;6244963;28;20280;-51
2022/12/17 15:59:43;;;;;;;60.67;28.13;;;-2.50;1.00;;;;;;6228975;28;20245;-51
2022/12/17 16:02:47;;;;;;;69.90;30.87;;;-2.30;1.00;;;;;;6234135;28;20273;-51
2022/12/17 16:05:52;;;;;;;58.03;28.83;;;-2.40;1.00;;;;;;6229135;28;20450;-51
2022/12/17 16:08:55;;;;;;;58.90;27.70;;;-2.40;1.00;;;;;;6239925;28;20433;-51
2022/12/17 16:11:58;;;;;;;63.43;28.53;;;-2.20;1.00;;;;;;6232280;28;20775;-50
2022/12/17 16:15:01;;;;;;;55.37;26.43;;;-2.20;1.00;;;;;;6233181;28;20417;-51
2022/12/17 16:18:05;;;;;;;60.40;28.10;;;-2.50;1.00;;;;;;6232623;28;20242;-51
2022/12/17 16:21:09;;;;;;;53.30;25.90;;;-2.20;1.00;;;;;;6232875;28;20749;-53
2022/12/17 16:24:12;;;;;;;64.07;27.40;;;-2.20;1.00;;;;;;6239384;28;20238;-51
2022/12/17 16:27:16;;;;;;;61.03;29.10;;;-2.40;1.00;;;;;;6237816;28;20257;-51
2022/12/17 16:30:19;;;;;;;71.80;30.17;;;-2.20;1.00;;;;;;6248867;28;20249;-51
2022/12/17 16:33:24;;;;;;;61.77;31.00;;;-2.20;1.00;;;;;;6239515;28;20617;-51
2022/12/17 16:36:27;;;;;;;62.57;30.03;;;-2.20;1.00;;;;;;6231616;28;20245;-51
2022/12/17 16:39:30;;;;;;;72.17;30.27;;;-2.30;1.00;;;;;;6227609;28;20242;-51
2022/12/17 16:42:33;;;;;;;53.63;28.67;;;-2.10;1.00;;;;;;6232892;28;20412;-51
2022/12/17 16:45:46;;;;;;;56.40;27.60;;;-2.00;1.00;;;;;;6245955;28;20249;-51
2022/12/17 16:48:50;;;;;;;64.30;30.03;;;-2.00;1.00;;;;;;6236790;28;20250;-57
2022/12/17 16:51:54;;;;;;;62.50;29.57;;;-2.20;1.00;;;;;;6232476;28;20239;-51
2022/12/17 16:54:59;;;;;;;62.80;29.63;;;-2.20;1.00;;;;;;6243888;28;20727;-52
2022/12/17 16:58:02;;;;;;;63.10;28.43;;;-2.30;1.00;;;;;;6238330;28;20238;-51
2022/12/17 17:01:05;;;;;;;57.10;29.43;;;-2.40;1.00;;;;;;6238242;28;20234;-51
2022/12/17 17:04:10;;;;;;;58.93;30.33;;;-2.40;1.00;;;;;;6245941;28;20226;-51
2022/12/17 17:07:13;;;;;;;60.07;28.87;;;-2.40;1.00;;;;;;6245141;28;20432;-52
2022/12/17 17:10:16;;;;;;;58.77;30.47;;;-2.20;1.00;;;;;;6236548;28;20231;-50
2022/12/17 17:13:19;;;;;;;64.03;29.83;;;-2.30;1.00;;;;;;6237304;28;20242;-52
2022/12/17 17:16:24;;;;;;;69.80;31.83;;;-2.50;1.00;;;;;;6237166;28;20245;-51
2022/12/17 17:19:28;;;;;;;61.40;30.20;;;-2.90;1.00;;;;;;6234562;28;20643;-51
2022/12/17 17:22:31;;;;;;;76.13;33.07;;;-2.60;1.00;;;;;;6239949;28;20245;-51
2022/12/17 17:25:36;;;;;;;72.87;31.13;;;-2.70;1.00;;;;;;6237561;28;20235;-51
2022/12/17 17:28:59;;;;;;;71.87;30.97;;;-2.50;1.00;;;;;;6230969;28;21610;-51
2022/12/17 17:32:02;;;;;;;66.93;32.07;;;-2.60;1.00;;;;;;6241695;28;20235;-51
2022/12/17 17:35:17;;;;;;;63.43;31.33;;;-2.60;1.00;;;;;;6231018;28;20255;-51
2022/12/17 17:38:20;;;;;;;62.60;30.53;;;-2.70;1.00;;;;;;6234210;28;20235;-49
2022/12/17 17:41:25;;;;;;;61.47;30.07;;;-2.70;1.00;;;;;;6234946;28;20268;-51
2022/12/17 17:44:28;;;;;;;57.43;27.77;;;-2.50;1.00;;;;;;6230576;28;20557;-51
2022/12/17 17:47:31;;;;;;;74.87;28.20;;;-2.70;1.00;;;;;;6235822;28;20239;-50
2022/12/17 17:50:36;;;;;;;63.93;29.17;;;-2.70;1.00;;;;;;6236088;28;20531;-50
2022/12/17 17:53:39;;;;;;;58.77;28.70;;;-2.90;1.00;;;;;;6232769;28;20238;-50
2022/12/17 17:56:42;;;;;;;65.13;28.90;;;-2.90;1.00;;;;;;6236512;28;20238;-51
2022/12/17 17:59:45;;;;;;;63.60;28.77;;;-2.60;1.00;;;;;;6237572;28;20813;-51
2022/12/17 18:02:48;;;;;;;58.77;28.67;;;-2.90;1.00;;;;;;6235123;28;20555;-51
2022/12/17 18:05:53;;;;;;;68.67;28.67;;;-2.80;1.00;;;;;;6236199;28;20326;-51
2022/12/17 18:08:56;;;;;;;65.37;28.30;;;-2.90;1.00;;;;;;6240330;28;20471;-51
2022/12/17 18:13:53;;;;;;;58.97;29.13;;;-3.10;1.00;;;;;;6233858;28;20552;-50
2022/12/17 18:15:21;;;;;;;64.50;28.93;;;-2.80;1.00;;;;;;6267029;28;20378;-50
2022/12/17 18:18:24;;;;;;;53.83;25.77;;;-2.90;1.00;;;;;;6260488;28;20242;-51
2022/12/17 18:21:30;;;;;;;57.63;27.43;;;-2.80;1.00;;;;;;6229924;28;20740;-50
2022/12/17 18:24:33;;;;;;;50.73;25.23;;;-2.90;1.00;;;;;;6234095;28;20231;-50
2022/12/17 18:27:36;;;;;;;56.53;26.67;;;-2.90;1.00;;;;;;6233822;28;20231;-50
2022/12/17 18:30:39;;;;;;;57.10;25.47;;;-3.00;1.00;;;;;;6226097;28;20534;-53
2022/12/17 18:33:44;;;;;;;59.87;26.53;;;-2.90;1.00;;;;;;6235352;28;20242;-51
2022/12/17 18:36:49;;;;;;;59.60;27.20;;;-3.20;1.00;;;;;;6225064;28;20253;-51
2022/12/17 18:39:52;;;;;;;71.97;27.67;;;-3.00;1.00;;;;;;6231965;28;20448;-51
2022/12/17 18:46:15;;;;;;;65.23;29.77;;;-3.20;1.00;;;;;;6233988;28;20227;-51
2022/12/17 18:49:26;;;;;;;63.53;29.70;;;-3.10;1.00;;;;;;6233466;28;20414;-50
2022/12/17 18:52:30;;;;;;;63.87;28.63;;;-3.10;1.00;;;;;;6229868;28;20616;-50
2022/12/17 18:55:39;;;;;;;57.93;26.70;;;-3.20;1.00;;;;;;6234873;28;20242;-51
2022/12/17 18:58:42;;;;;;;60.83;27.73;;;-3.30;1.00;;;;;;6228384;28;20243;-51
2022/12/17 19:01:46;;;;;;;71.47;30.00;;;-3.20;1.00;;;;;;6234278;28;20708;-51
2022/12/17 19:04:49;;;;;;;65.93;28.40;;;-3.30;1.00;;;;;;6233596;28;20231;-47
2022/12/17 19:07:53;;;;;;;63.27;30.00;;;-3.30;1.00;;;;;;6233319;28;20239;-51
2022/12/17 19:11:02;;;;;;;56.60;26.27;;;-3.20;1.00;;;;;;6227387;28;20237;-50
2022/12/17 19:14:05;;;;;;;68.60;28.07;;;-3.20;1.00;;;;;;6229990;28;20226;-50
2022/12/17 19:17:09;;;;;;;68.17;27.37;;;-3.40;1.00;;;;;;6233907;28;20241;-50
2022/12/17 19:20:12;;;;;;;65.87;26.73;;;-3.20;1.00;;;;;;6254740;28;20380;-51
2022/12/17 19:23:16;;;;;;;59.43;26.20;;;-3.30;1.00;;;;;;6258661;28;20226;-50
2022/12/17 19:26:21;;;;;;;63.77;25.73;;;-3.30;1.00;;;;;;6258368;28;20368;-50
2022/12/17 19:29:24;;;;;;;63.53;25.03;;;-3.50;1.00;;;;;;6253426;28;20245;-51
2022/12/17 19:32:27;;;;;;;56.37;25.30;;;-3.60;1.00;;;;;;6256906;28;20234;-51
2022/12/17 19:35:30;;;;;;;57.73;25.43;;;-3.40;1.00;;;;;;6252623;28;20597;-50
2022/12/17 19:38:35;;;;;;;53.53;23.80;;;-3.30;1.00;;;;;;6256512;28;20240;-55
2022/12/17 19:41:39;;;;;;;54.50;25.13;;;-3.30;1.00;;;;;;6257626;28;20695;-51
2022/12/17 19:44:42;;;;;;;54.67;24.80;;;-3.30;1.00;;;;;;6255384;28;20320;-50
2022/12/17 19:47:45;;;;;;;62.03;26.10;;;-3.60;1.00;;;;;;6256583;28;20248;-53
2022/12/17 19:50:56;;;;;;;59.40;25.23;;;-3.50;1.00;;;;;;6257297;28;20233;-51
2022/12/17 19:54:00;;;;;;;63.40;25.40;;;-3.30;1.00;;;;;;6249403;28;20912;-50
2022/12/17 19:57:10;;;;;;;57.23;23.00;;;-3.60;1.00;;;;;;6249604;28;20368;-51
2022/12/17 20:00:14;;;;;;;43.00;22.73;;;-3.60;1.00;;;;;;6256220;28;20369;-50
2022/12/17 20:03:17;;;;;;;47.60;22.60;;;-3.70;1.00;;;;;;6257400;28;20226;-50
2022/12/17 20:06:22;;;;;;;49.97;23.33;;;-3.40;1.00;;;;;;6256078;28;20238;-51
2022/12/17 20:09:26;;;;;;;46.90;21.87;;;-3.40;1.00;;;;;;6245867;28;20758;-52
2022/12/17 20:12:29;;;;;;;48.67;22.33;;;-3.60;1.00;;;;;;6252678;28;20234;-56
2022/12/17 20:15:32;;;;;;;52.13;22.70;;;-3.80;1.00;;;;;;6257286;28;20237;-50
2022/12/17 20:18:35;;;;;;;44.30;21.40;;;-3.40;1.00;;;;;;6251767;28;20257;-51
2022/12/17 20:21:39;;;;;;;63.30;24.03;;;-3.70;1.00;;;;;;6257245;28;20309;-50
2022/12/17 20:24:43;;;;;;;71.50;24.07;;;-4.00;1.00;;;;;;6256114;28;20249;-50
2022/12/17 20:27:46;;;;;;;46.17;23.87;;;-3.90;1.00;;;;;;6240504;28;20241;-48
2022/12/17 20:30:49;;;;;;;58.53;26.33;;;-4.10;1.00;;;;;;6257140;28;20230;-49
2022/12/17 20:33:52;;;;;;;63.10;27.60;;;-4.10;1.00;;;;;;6257116;28;20521;-51
2022/12/17 20:36:55;;;;;;;54.53;24.63;;;-4.10;1.00;;;;;;6248615;28;20230;-51
2022/12/17 20:39:59;;;;;;;60.20;24.47;;;-3.70;1.00;;;;;;6256533;28;20234;-50
2022/12/17 20:43:02;;;;;;;55.23;23.97;;;-4.10;1.00;;;;;;6255793;28;20479;-52
2022/12/17 20:46:08;;;;;;;50.00;22.33;;;-4.20;1.00;;;;;;6254611;28;20233;-50
2022/12/17 20:49:13;;;;;;;51.50;23.90;;;-4.20;1.00;;;;;;6256729;28;20265;-51
2022/12/17 20:52:16;;;;;;;63.17;27.50;;;-4.20;1.00;;;;;;6255988;28;20239;-50
2022/12/17 20:55:21;;;;;;;57.47;25.00;;;-4.10;1.00;;;;;;6257962;28;20229;-50
2022/12/17 20:58:31;;;;;;;59.43;24.80;;;-4.20;1.00;;;;;;6257036;28;20624;-50
2022/12/17 21:01:36;;;;;;;66.00;26.27;;;-4.20;1.00;;;;;;6256291;28;20302;-50
2022/12/17 21:04:39;;;;;;;65.57;25.63;;;-4.10;1.00;;;;;;6257766;28;20242;-50
2022/12/17 21:07:42;;;;;;;49.13;23.77;;;-4.10;1.00;;;;;;6255950;28;20282;-49
2022/12/17 21:10:46;;;;;;;57.40;25.57;;;-4.00;1.00;;;;;;6244033;28;20249;-50
2022/12/17 21:13:49;;;;;;;68.83;25.63;;;-4.00;1.00;;;;;;6238439;28;20230;-51
2022/12/17 21:16:53;;;;;;;63.17;26.97;;;-3.90;1.00;;;;;;6236957;28;20255;-48
2022/12/17 21:19:56;;;;;;;63.97;25.43;;;-4.20;1.00;;;;;;6238283;28;20330;-50
2022/12/17 21:23:07;;;;;;;51.30;24.23;;;-4.10;1.00;;;;;;6242169;28;20313;-50
2022/12/17 21:26:14;;;;;;;49.63;23.53;;;-4.10;1.00;;;;;;6258830;28;20230;-50
2022/12/17 21:29:17;;;;;;;49.73;23.57;;;-4.00;1.00;;;;;;6261868;28;20238;-50
2022/12/17 21:32:20;;;;;;;45.07;23.60;;;-3.90;1.00;;;;;;6261897;28;20230;-50
2022/12/17 21:35:23;;;;;;;49.53;23.87;;;-4.20;1.00;;;;;;6255596;28;20241;-50
2022/12/17 21:38:27;;;;;;;48.37;23.53;;;-4.10;1.00;;;;;;6260686;28;20242;-50
2022/12/17 21:41:33;;;;;;;62.57;24.07;;;-4.00;1.00;;;;;;6245108;28;20640;-50
2022/12/17 21:44:36;;;;;;;54.80;23.63;;;-3.90;1.00;;;;;;6257567;28;20234;-49
2022/12/17 21:47:39;;;;;;;49.03;24.63;;;-4.00;1.00;;;;;;6260740;28;20248;-50
2022/12/17 21:50:44;;;;;;;51.47;23.53;;;-4.10;1.00;;;;;;6260556;28;20233;-50
2022/12/17 21:53:47;;;;;;;47.67;23.30;;;-4.00;1.00;;;;;;6235994;28;20458;-50
2022/12/17 21:56:52;;;;;;;49.60;23.37;;;-4.00;1.00;;;;;;6236703;28;20234;-50
2022/12/17 21:59:55;;;;;;;48.63;23.97;;;-3.90;1.00;;;;;;6238345;28;20238;-49
2022/12/17 22:02:58;;;;;;;58.80;26.07;;;-4.00;1.00;;;;;;6260674;28;20496;-50
2022/12/17 22:06:06;;;;;;;50.23;25.30;;;-4.00;1.00;;;;;;6260826;28;20244;-50
2022/12/17 22:09:10;;;;;;;48.27;23.30;;;-3.90;1.00;;;;;;6254669;28;20384;-49
2022/12/17 22:15:45;;;;;;;40.47;22.80;;;-4.10;1.00;;;;;;6236863;28;20235;-50
2022/12/17 22:18:50;;;;;;;48.33;24.50;;;-4.00;1.00;;;;;;6235924;28;20250;-50
2022/12/17 22:21:53;;;;;;;46.13;22.20;;;-4.10;1.00;;;;;;6235698;28;20531;-50
2022/12/17 22:25:00;;;;;;;51.23;25.00;;;-4.20;1.00;;;;;;6251844;28;20253;-49
2022/12/17 22:28:11;;;;;;;49.33;22.90;;;-4.30;1.00;;;;;;6245431;28;20250;-48
2022/12/17 22:34:36;;;;;;;47.67;23.10;;;-4.10;1.00;;;;;;6255038;28;20242;-51
2022/12/17 22:37:59;;;;;;;45.43;22.97;;;-4.10;1.00;;;;;;6253287;28;20238;-51
2022/12/17 22:45:05;;;;;;;50.10;21.50;;;-4.40;1.00;;;;;;6245055;28;20262;-50
2022/12/17 22:48:14;;;;;;;45.97;23.93;;;-4.30;1.00;;;;;;6240730;28;20916;-50
2022/12/17 22:51:17;;;;;;;42.20;22.33;;;-4.40;1.00;;;;;;6259480;28;20446;-50
2022/12/17 22:54:35;;;;;;;49.17;21.53;;;-4.30;1.00;;;;;;6234229;28;20262;-51
2022/12/17 22:57:38;;;;;;;44.60;22.17;;;-4.20;1.00;;;;;;6234788;28;20239;-50
2022/12/17 23:00:43;;;;;;;45.93;23.60;;;-4.30;1.00;;;;;;6233752;28;20250;-49
2022/12/17 23:03:46;;;;;;;56.37;22.57;;;-4.40;1.00;;;;;;6258740;28;20238;-51
2022/12/17 23:06:49;;;;;;;49.67;23.33;;;-4.50;1.00;;;;;;6258801;28;20252;-50
2022/12/17 23:09:52;;;;;;;47.77;22.33;;;-4.50;1.00;;;;;;6249040;28;20232;-50
2022/12/17 23:12:55;;;;;;;41.80;21.70;;;-4.40;1.00;;;;;;6256224;28;20233;-50
2022/12/17 23:16:00;;;;;;;42.17;22.57;;;-4.30;1.00;;;;;;6235049;28;20830;-50
2022/12/17 23:19:03;;;;;;;42.63;21.37;;;-4.40;1.00;;;;;;6234822;28;20474;-50
2022/12/17 23:22:06;;;;;;;47.70;22.53;;;-4.40;1.00;;;;;;6235606;28;20778;-50
2022/12/17 23:25:10;;;;;;;52.63;24.17;;;-4.40;1.00;;;;;;6237639;28;20239;-51
2022/12/17 23:28:13;;;;;;;46.80;22.83;;;-4.40;1.00;;;;;;6235489;28;20242;-49
2022/12/17 23:31:20;;;;;;;47.60;22.43;;;-4.30;1.00;;;;;;6243426;28;20539;-50
2022/12/17 23:34:23;;;;;;;52.77;25.07;;;-4.50;1.00;;;;;;6254248;28;20375;-50
2022/12/17 23:37:26;;;;;;;48.60;23.00;;;-4.40;1.00;;;;;;6257019;28;20264;-50
2022/12/17 23:40:29;;;;;;;53.37;24.77;;;-4.30;1.00;;;;;;6255472;28;20462;-50
2022/12/17 23:43:32;;;;;;;52.53;25.63;;;-4.20;1.00;;;;;;6243319;28;20480;-47
2022/12/17 23:46:37;;;;;;;66.40;26.93;;;-4.30;1.00;;;;;;6258771;28;20257;-50
2022/12/17 23:49:40;;;;;;;62.30;26.10;;;-4.30;1.00;;;;;;6254302;28;20237;-48
2022/12/17 23:52:43;;;;;;;55.97;25.13;;;-4.30;1.00;;;;;;6252348;28;20706;-48
2022/12/17 23:55:46;;;;;;;49.30;22.67;;;-4.60;1.00;;;;;;6259589;28;20238;-49
2022/12/17 23:58:54;;;;;;;44.60;23.47;;;-4.70;1.00;;;;;;6258422;28;20399;-49
